createdAt,value
2018-07-12T00:00:22.242Z,70.90
2018-07-12T00:02:49.606Z,71.10
2018-07-12T00:05:16.954Z,70.90
2018-07-12T00:07:44.313Z,70.50
2018-07-12T00:10:11.899Z,70.70
2018-07-12T00:12:39.262Z,70.70
2018-07-12T00:15:06.619Z,69.30
2018-07-12T00:17:34.123Z,70.10
2018-07-12T00:20:01.483Z,69.60
2018-07-12T00:22:29.180Z,70.30
2018-07-12T00:24:56.797Z,69.90
2018-07-12T00:27:24.158Z,70.20
2018-07-12T00:29:51.492Z,69.40
2018-07-12T00:32:18.826Z,68.90
2018-07-12T00:34:46.191Z,68.50
2018-07-12T00:37:13.528Z,68.50
2018-07-12T00:39:41.075Z,68.00
2018-07-12T00:42:08.408Z,67.60
2018-07-12T00:44:35.726Z,67.50
2018-07-12T00:47:03.127Z,67.50
2018-07-12T00:49:30.514Z,67.10
2018-07-12T00:51:57.881Z,67.20
2018-07-12T00:54:25.234Z,66.50
2018-07-12T00:56:52.565Z,66.60
2018-07-12T00:59:20.019Z,64.90
2018-07-12T01:01:47.379Z,64.60
2018-07-12T01:04:14.786Z,64.80
2018-07-12T01:06:42.145Z,65.80
2018-07-12T01:09:09.611Z,66.60
2018-07-12T01:11:36.991Z,66.00
2018-07-12T01:14:04.330Z,65.60
2018-07-12T01:16:31.714Z,65.60
2018-07-12T01:18:59.108Z,65.90
2018-07-12T01:23:54.092Z,64.80
2018-07-12T01:26:21.436Z,64.80
2018-07-12T01:28:48.982Z,64.40
2018-07-12T01:31:16.322Z,64.50
2018-07-12T01:33:43.893Z,64.80
2018-07-12T01:36:11.318Z,64.60
2018-07-12T01:38:38.797Z,65.00
2018-07-12T01:41:06.190Z,65.10
2018-07-12T01:43:33.560Z,64.80
2018-07-12T01:46:00.918Z,65.10
2018-07-12T01:48:28.274Z,65.70
2018-07-12T01:50:55.685Z,65.70
2018-07-12T01:53:23.222Z,66.00
2018-07-12T01:55:50.763Z,66.00
2018-07-12T01:58:18.125Z,65.70
2018-07-12T02:03:13.455Z,65.20
2018-07-12T02:05:40.887Z,64.00
2018-07-12T02:08:08.236Z,64.30
2018-07-12T02:10:37.557Z,64.00
2018-07-12T02:13:04.916Z,63.80
2018-07-12T02:15:32.239Z,63.90
2018-07-12T02:17:59.581Z,63.70
2018-07-12T02:20:26.950Z,65.90
2018-07-12T02:22:54.447Z,65.70
2018-07-12T02:25:21.839Z,66.80
2018-07-12T02:27:49.198Z,67.50
2018-07-12T02:30:16.615Z,67.40
2018-07-12T02:32:43.984Z,67.60
2018-07-12T02:35:11.399Z,67.70
2018-07-12T02:37:38.699Z,67.40
2018-07-12T02:40:06.053Z,67.10
2018-07-12T02:42:33.415Z,67.50
2018-07-12T02:45:00.783Z,66.50
2018-07-12T02:47:28.110Z,66.60
2018-07-12T02:49:55.495Z,66.80
2018-07-12T02:52:22.856Z,67.40
2018-07-12T02:54:50.192Z,68.90
2018-07-12T02:57:17.575Z,69.40
2018-07-12T02:59:44.905Z,69.20
2018-07-12T03:02:12.277Z,69.10
2018-07-12T03:04:39.635Z,68.60
2018-07-12T03:07:07.012Z,68.60
2018-07-12T03:09:34.376Z,69.20
2018-07-12T03:12:01.708Z,69.00
2018-07-12T03:14:29.095Z,69.30
2018-07-12T03:16:56.452Z,69.00
2018-07-12T03:19:23.794Z,68.80
2018-07-12T03:21:51.182Z,68.60
2018-07-12T03:24:18.538Z,68.80
2018-07-12T03:26:45.900Z,69.00
2018-07-12T03:29:13.409Z,69.20
2018-07-12T03:31:40.766Z,69.40
2018-07-12T03:34:08.101Z,69.40
2018-07-12T03:36:35.427Z,69.60
2018-07-12T03:39:03.164Z,69.80
2018-07-12T03:41:30.558Z,70.10
2018-07-12T03:43:57.925Z,69.70
2018-07-12T03:46:25.250Z,69.20
2018-07-12T03:48:52.614Z,69.90
2018-07-12T03:51:19.971Z,70.00
2018-07-12T03:53:48.129Z,70.30
2018-07-12T03:56:15.482Z,70.50
2018-07-12T03:58:42.906Z,71.10
2018-07-12T04:01:10.311Z,71.20
2018-07-12T04:03:37.654Z,70.80
2018-07-12T04:06:05.009Z,71.20
2018-07-12T04:08:32.379Z,71.60
2018-07-12T04:10:59.764Z,71.50
2018-07-12T04:13:27.122Z,71.50
2018-07-12T04:15:54.465Z,71.60
2018-07-12T04:18:21.805Z,71.40
2018-07-12T04:20:49.171Z,70.60
2018-07-12T04:23:16.513Z,70.70
2018-07-12T04:25:43.883Z,70.50
2018-07-12T04:28:11.218Z,70.40
2018-07-12T04:30:38.578Z,70.50
2018-07-12T04:33:05.955Z,70.60
2018-07-12T04:35:33.317Z,70.70
2018-07-12T04:38:00.695Z,70.90
2018-07-12T04:40:28.038Z,71.30
2018-07-12T04:42:55.403Z,71.40
2018-07-12T04:45:22.751Z,72.00
2018-07-12T04:47:50.110Z,72.20
2018-07-12T04:50:17.482Z,72.70
2018-07-12T04:52:44.859Z,73.50
2018-07-12T04:55:12.269Z,73.40
2018-07-12T04:57:39.637Z,73.60
2018-07-12T05:00:07.137Z,74.30
2018-07-12T05:02:34.491Z,73.80
2018-07-12T05:05:01.855Z,72.90
2018-07-12T05:07:29.218Z,72.30
2018-07-12T05:09:57.010Z,72.30
2018-07-12T05:12:24.522Z,72.10
2018-07-12T05:14:51.906Z,72.80
2018-07-12T05:17:19.258Z,73.30
2018-07-12T05:19:48.706Z,73.50
2018-07-12T05:22:16.219Z,71.30
2018-07-12T05:24:44.617Z,71.00
2018-07-12T05:29:40.537Z,67.90
2018-07-12T05:32:08.280Z,67.70
2018-07-12T05:34:35.681Z,68.20
2018-07-12T05:37:04.690Z,68.70
2018-07-12T05:39:33.203Z,68.00
2018-07-12T05:42:01.834Z,67.70
2018-07-12T05:44:30.384Z,68.90
2018-07-12T05:46:58.913Z,68.30
2018-07-12T05:49:27.720Z,69.00
2018-07-12T05:51:56.238Z,68.70
2018-07-12T05:54:24.931Z,69.60
2018-07-12T05:56:53.465Z,71.40
2018-07-12T05:59:22.036Z,71.10
2018-07-12T06:02:01.788Z,71.80
2018-07-12T06:04:30.301Z,71.50
2018-07-12T06:06:58.852Z,72.00
2018-07-12T06:09:27.366Z,72.30
2018-07-12T06:11:55.939Z,72.20
2018-07-12T06:14:25.231Z,71.90
2018-07-12T06:16:53.821Z,71.90
2018-07-12T06:19:22.447Z,72.30
2018-07-12T06:21:51.059Z,72.10
2018-07-12T06:24:19.771Z,72.70
2018-07-12T06:26:48.265Z,71.80
2018-07-12T06:29:17.121Z,71.40
2018-07-12T06:31:45.628Z,72.10
2018-07-12T06:34:14.164Z,72.70
2018-07-12T06:36:42.722Z,73.00
2018-07-12T06:39:11.785Z,73.10
2018-07-12T06:41:40.346Z,73.60
2018-07-12T06:44:09.827Z,71.70
2018-07-12T06:46:38.388Z,72.80
2018-07-12T06:49:07.045Z,73.90
2018-07-12T06:51:36.141Z,73.20
2018-07-12T06:54:04.722Z,73.30
2018-07-12T06:56:33.309Z,72.80
2018-07-12T06:59:01.998Z,74.60
2018-07-12T07:01:30.585Z,75.70
2018-07-12T07:03:59.291Z,72.00
2018-07-12T07:06:27.917Z,73.40
2018-07-12T07:09:09.386Z,72.40
2018-07-12T07:11:38.146Z,72.10
2018-07-12T07:14:07.552Z,72.40
2018-07-12T07:16:36.234Z,71.80
2018-07-12T07:19:04.864Z,71.00
2018-07-12T07:21:33.830Z,72.50
2018-07-12T07:24:03.003Z,72.20
2018-07-12T07:26:32.219Z,71.70
2018-07-12T07:29:03.425Z,71.20
2018-07-12T07:31:32.909Z,71.90
2018-07-12T07:34:01.454Z,73.60
2018-07-12T07:36:30.083Z,74.40
2018-07-12T07:38:59.287Z,76.50
2018-07-12T07:41:27.854Z,77.70
2018-07-12T07:43:57.234Z,80.10
2018-07-12T07:46:25.781Z,79.80
2018-07-12T07:48:54.519Z,79.70
2018-07-12T07:51:24.622Z,79.70
2018-07-12T07:53:53.159Z,78.70
2018-07-12T07:56:21.731Z,78.80
2018-07-12T07:58:50.299Z,80.80
2018-07-12T08:01:18.900Z,79.00
2018-07-12T08:03:47.465Z,78.50
2018-07-12T08:06:16.093Z,76.80
2018-07-12T08:08:44.643Z,77.30
2018-07-12T08:11:13.214Z,76.70
2018-07-12T08:16:10.929Z,75.00
2018-07-12T08:18:39.704Z,74.90
2018-07-12T08:21:15.971Z,74.10
2018-07-12T08:23:45.788Z,71.00
2018-07-12T08:26:14.438Z,68.20
2018-07-12T08:28:42.986Z,61.00
2018-07-12T08:31:12.664Z,57.90
2018-07-12T08:33:41.288Z,57.40
2018-07-12T08:36:10.567Z,53.20
2018-07-12T08:38:39.337Z,50.30
2018-07-12T08:41:07.956Z,50.20
2018-07-12T08:43:36.522Z,47.10
2018-07-12T08:46:05.178Z,46.50
2018-07-12T08:48:33.763Z,44.70
2018-07-12T08:51:02.334Z,47.50
2018-07-12T08:53:30.867Z,48.70
2018-07-12T08:55:59.410Z,49.50
2018-07-12T08:58:27.977Z,50.60
2018-07-12T09:00:56.519Z,45.80
2018-07-12T09:03:25.085Z,47.70
2018-07-12T09:05:54.520Z,49.90
2018-07-12T09:08:23.221Z,51.70
2018-07-12T09:10:51.799Z,51.00
2018-07-12T09:13:20.361Z,50.60
2018-07-12T09:15:49.018Z,51.50
2018-07-12T09:18:17.558Z,49.80
2018-07-12T09:20:46.462Z,50.70
2018-07-12T09:23:15.059Z,49.80
2018-07-12T09:25:43.586Z,50.80
2018-07-12T09:28:12.198Z,54.20
2018-07-12T09:30:40.746Z,51.60
2018-07-12T09:33:11.443Z,51.40
2018-07-12T09:35:40.078Z,48.10
2018-07-12T09:38:18.514Z,48.60
2018-07-12T09:40:48.315Z,47.80
2018-07-12T09:43:16.861Z,49.80
2018-07-12T09:45:45.418Z,52.20
2018-07-12T09:48:14.268Z,48.60
2018-07-12T09:50:42.898Z,48.30
2018-07-12T09:53:12.266Z,49.50
2018-07-12T09:55:40.894Z,50.90
2018-07-12T09:58:25.799Z,51.30
2018-07-12T10:00:59.658Z,50.20
2018-07-12T10:03:34.229Z,49.70
2018-07-12T10:06:07.087Z,49.20
2018-07-12T10:08:40.980Z,48.70
2018-07-12T10:11:11.043Z,48.80
2018-07-12T10:13:44.950Z,48.50
2018-07-12T10:16:18.861Z,47.10
2018-07-12T10:18:47.491Z,46.00
2018-07-12T10:21:16.071Z,47.50
2018-07-12T10:23:44.623Z,46.30
2018-07-12T10:26:13.173Z,44.60
2018-07-12T10:28:41.682Z,44.90
2018-07-12T10:31:10.199Z,46.80
2018-07-12T10:33:38.762Z,48.50
2018-07-12T10:36:07.371Z,48.40
2018-07-12T10:38:38.968Z,44.50
2018-07-12T10:41:07.633Z,46.90
2018-07-12T10:43:36.207Z,45.50
2018-07-12T10:46:05.763Z,44.60
2018-07-12T10:48:35.926Z,45.80
2018-07-12T10:51:04.493Z,44.00
2018-07-12T10:53:35.195Z,45.50
2018-07-12T10:56:04.034Z,44.20
2018-07-12T10:58:32.635Z,43.60
2018-07-12T11:01:01.361Z,43.00
2018-07-12T11:03:30.077Z,42.60
2018-07-12T11:05:58.641Z,44.30
2018-07-12T11:08:27.307Z,45.10
2018-07-12T11:10:55.922Z,44.90
2018-07-12T11:13:35.510Z,46.40
2018-07-12T11:16:04.605Z,45.80
2018-07-12T11:18:33.803Z,44.90
2018-07-12T11:21:02.811Z,44.00
2018-07-12T11:23:31.394Z,41.00
2018-07-12T11:25:59.983Z,41.60
2018-07-12T11:28:28.719Z,40.30
2018-07-12T11:30:57.283Z,41.30
2018-07-12T11:33:44.299Z,39.00
2018-07-12T11:36:12.968Z,41.20
2018-07-12T11:38:42.763Z,42.70
2018-07-12T11:41:11.907Z,42.20
2018-07-12T11:43:41.744Z,41.70
2018-07-12T11:46:11.533Z,44.00
2018-07-12T11:48:41.066Z,41.50
2018-07-12T11:51:09.677Z,41.90
2018-07-12T11:53:38.261Z,40.90
2018-07-12T11:56:06.990Z,40.60
2018-07-12T11:58:35.541Z,40.60
2018-07-12T12:01:04.137Z,42.10
2018-07-12T12:03:32.976Z,41.50
2018-07-12T12:06:01.506Z,39.30
2018-07-12T12:08:30.784Z,39.10
2018-07-12T12:10:59.331Z,39.40
2018-07-12T12:13:27.954Z,39.70
2018-07-12T12:15:56.428Z,40.50
2018-07-12T12:18:25.018Z,40.20
2018-07-12T12:20:53.606Z,41.80
2018-07-12T12:23:22.099Z,40.70
2018-07-12T12:25:50.762Z,41.00
2018-07-12T12:28:19.339Z,40.90
2018-07-12T12:30:47.897Z,41.00
2018-07-12T12:33:16.438Z,41.30
2018-07-12T12:35:44.970Z,42.30
2018-07-12T12:38:13.533Z,41.20
2018-07-12T12:40:42.009Z,41.10
2018-07-12T12:43:10.545Z,41.40
2018-07-12T12:45:39.082Z,39.40
2018-07-12T12:48:07.662Z,40.40
2018-07-12T12:50:36.182Z,39.30
2018-07-12T12:53:04.800Z,38.80
2018-07-12T12:55:33.330Z,40.00
2018-07-12T12:58:02.437Z,41.60
2018-07-12T13:00:37.772Z,41.30
2018-07-12T13:03:06.356Z,41.10
2018-07-12T13:05:34.873Z,41.80
2018-07-12T13:08:03.472Z,42.00
2018-07-12T13:10:31.987Z,40.10
2018-07-12T13:13:00.554Z,41.40
2018-07-12T13:15:29.158Z,42.90
2018-07-12T13:17:58.322Z,42.00
2018-07-12T13:20:27.082Z,41.40
2018-07-12T13:22:55.674Z,39.70
2018-07-12T13:25:24.319Z,41.50
2018-07-12T13:27:52.892Z,39.20
2018-07-12T13:30:21.711Z,39.50
2018-07-12T13:32:50.303Z,40.00
2018-07-12T13:35:18.842Z,40.00
2018-07-12T13:37:47.371Z,40.60
2018-07-12T13:40:29.130Z,39.90
2018-07-12T13:42:57.942Z,39.20
2018-07-12T13:45:27.156Z,40.70
2018-07-12T13:47:55.778Z,40.70
2018-07-12T13:52:52.703Z,39.20
2018-07-12T13:55:21.229Z,40.20
2018-07-12T13:57:49.813Z,41.80
2018-07-12T14:00:18.374Z,41.20
2018-07-12T14:02:46.941Z,41.10
2018-07-12T14:05:15.509Z,41.00
2018-07-12T14:07:44.082Z,41.50
2018-07-12T14:10:16.565Z,40.50
2018-07-12T14:12:45.779Z,41.50
2018-07-12T14:15:14.323Z,39.30
2018-07-12T14:17:42.837Z,39.90
2018-07-12T14:20:11.442Z,40.20
2018-07-12T14:22:39.974Z,38.10
2018-07-12T14:25:08.524Z,37.50
2018-07-12T14:27:37.088Z,37.70
2018-07-12T14:30:06.188Z,38.00
2018-07-12T14:32:34.763Z,37.80
2018-07-12T14:35:03.394Z,38.30
2018-07-12T14:37:31.914Z,39.30
2018-07-12T14:40:00.477Z,38.80
2018-07-12T14:42:29.010Z,38.30
2018-07-12T14:44:57.575Z,38.50
2018-07-12T14:47:26.154Z,38.70
2018-07-12T14:49:54.659Z,38.80
2018-07-12T14:52:23.257Z,39.40
2018-07-12T14:54:51.749Z,38.60
2018-07-12T14:57:20.274Z,38.50
2018-07-12T14:59:48.837Z,40.10
2018-07-12T15:02:17.362Z,40.90
2018-07-12T15:04:45.930Z,41.00
2018-07-12T15:07:14.473Z,42.10
2018-07-12T15:09:51.046Z,41.10
2018-07-12T15:12:19.588Z,41.00
2018-07-12T15:14:48.118Z,41.10
2018-07-12T15:17:16.709Z,39.20
2018-07-12T15:19:45.234Z,40.00
2018-07-12T15:22:13.789Z,40.10
2018-07-12T15:24:42.316Z,40.70
2018-07-12T15:27:10.829Z,42.00
2018-07-12T15:29:39.383Z,41.40
2018-07-12T15:32:07.926Z,41.80
2018-07-12T15:34:36.464Z,43.20
2018-07-12T15:37:05.133Z,42.80
2018-07-12T15:39:34.402Z,42.90
2018-07-12T15:42:02.965Z,43.80
2018-07-12T15:44:31.516Z,42.60
2018-07-12T15:47:00.050Z,40.50
2018-07-12T15:49:28.634Z,40.20
2018-07-12T15:51:57.168Z,40.60
2018-07-12T15:54:25.686Z,39.90
2018-07-12T15:56:54.290Z,39.50
2018-07-12T15:59:22.853Z,41.30
2018-07-12T16:01:51.429Z,41.30
2018-07-12T16:04:19.991Z,39.70
2018-07-12T16:06:48.590Z,39.70
2018-07-12T16:09:18.044Z,40.00
2018-07-12T16:11:46.643Z,39.50
2018-07-12T16:14:15.270Z,39.80
2018-07-12T16:16:43.847Z,39.00
2018-07-12T16:19:12.428Z,39.10
2018-07-12T16:21:40.980Z,39.20
2018-07-12T16:24:09.554Z,39.60
2018-07-12T16:26:38.109Z,39.00
2018-07-12T16:29:06.632Z,39.20
2018-07-12T16:31:35.205Z,39.00
2018-07-12T16:34:03.761Z,40.30
2018-07-12T16:36:32.343Z,39.60
2018-07-12T16:39:00.849Z,39.40
2018-07-12T16:41:29.366Z,39.30
2018-07-12T16:43:58.033Z,39.00
2018-07-12T16:46:26.606Z,39.50
2018-07-12T16:48:55.206Z,39.50
2018-07-12T16:51:23.743Z,39.00
2018-07-12T16:53:52.350Z,38.40
2018-07-12T16:56:20.913Z,38.80
2018-07-12T16:58:49.654Z,38.70
2018-07-12T17:01:18.224Z,38.80
2018-07-12T17:03:46.760Z,38.80
2018-07-12T17:06:18.523Z,39.00
2018-07-12T17:08:47.027Z,39.10
2018-07-12T17:11:15.677Z,38.90
2018-07-12T17:13:44.249Z,39.00
2018-07-12T17:16:12.849Z,39.20
2018-07-12T17:18:41.939Z,39.70
2018-07-12T17:21:10.539Z,39.20
2018-07-12T17:23:39.086Z,38.80
2018-07-12T17:26:07.634Z,38.90
2018-07-12T17:28:36.217Z,39.50
2018-07-12T17:31:04.710Z,39.10
2018-07-12T17:33:33.321Z,39.60
2018-07-12T17:36:01.823Z,40.50
2018-07-12T17:38:30.374Z,40.10
2018-07-12T17:40:59.699Z,40.10
2018-07-12T17:43:28.242Z,39.40
2018-07-12T17:45:57.122Z,39.50
2018-07-12T17:48:45.286Z,39.70
2018-07-12T17:51:13.874Z,39.90
2018-07-12T17:53:42.441Z,39.90
2018-07-12T17:56:10.981Z,40.50
2018-07-12T17:58:39.723Z,40.50
2018-07-12T18:01:08.509Z,40.00
2018-07-12T18:03:37.097Z,39.20
2018-07-12T18:06:05.731Z,39.80
2018-07-12T18:08:34.326Z,40.00
2018-07-12T18:11:02.936Z,40.60
2018-07-12T18:13:31.453Z,40.70
2018-07-12T18:15:59.967Z,40.50
2018-07-12T18:18:28.603Z,41.60
2018-07-12T18:20:57.197Z,41.30
2018-07-12T18:23:26.363Z,40.70
2018-07-12T18:25:54.902Z,40.90
2018-07-12T18:28:23.484Z,42.00
2018-07-12T18:30:52.088Z,42.90
2018-07-12T18:33:20.618Z,44.40
2018-07-12T18:35:49.155Z,43.60
2018-07-12T18:38:17.926Z,44.20
2018-07-12T18:40:46.485Z,45.30
2018-07-12T18:43:16.394Z,46.30
2018-07-12T18:45:44.960Z,47.70
2018-07-12T18:48:13.510Z,48.50
2018-07-12T18:50:42.080Z,49.80
2018-07-12T18:53:10.678Z,51.90
2018-07-12T18:55:39.244Z,53.20
2018-07-12T18:58:08.034Z,53.90
2018-07-12T19:00:36.582Z,55.20
2018-07-12T19:03:05.151Z,55.70
2018-07-12T19:05:33.694Z,57.00
2018-07-12T19:08:02.330Z,57.90
2018-07-12T19:10:30.841Z,58.40
2018-07-12T19:13:00.155Z,58.60
2018-07-12T19:15:28.802Z,58.70
2018-07-12T19:17:57.333Z,59.00
2018-07-12T19:20:25.963Z,59.20
2018-07-12T19:22:54.528Z,59.10
2018-07-12T19:25:23.110Z,59.70
2018-07-12T19:27:51.613Z,60.40
2018-07-12T19:30:20.185Z,60.90
2018-07-12T19:32:48.759Z,60.60
2018-07-12T19:35:17.365Z,59.90
2018-07-12T19:37:46.576Z,58.70
2018-07-12T19:40:15.110Z,59.60
2018-07-12T19:42:43.781Z,59.60
2018-07-12T19:45:13.311Z,59.90
2018-07-12T19:47:41.868Z,59.90
2018-07-12T19:50:10.818Z,60.10
2018-07-12T19:52:39.346Z,60.60
2018-07-12T19:55:07.933Z,60.60
2018-07-12T19:57:41.848Z,60.50
2018-07-12T20:00:11.411Z,61.70
2018-07-12T20:02:40.194Z,62.40
2018-07-12T20:05:10.474Z,63.60
2018-07-12T20:07:39.076Z,62.90
2018-07-12T20:10:07.657Z,62.30
2018-07-12T20:12:36.178Z,62.10
2018-07-12T20:15:04.985Z,61.40
2018-07-12T20:17:33.566Z,62.10
2018-07-12T20:20:02.369Z,62.60
2018-07-12T20:22:30.977Z,62.90
2018-07-12T20:25:01.742Z,64.00
2018-07-12T20:27:33.599Z,65.00
2018-07-12T20:30:02.188Z,65.30
2018-07-12T20:32:30.788Z,66.20
2018-07-12T20:34:59.291Z,67.20
2018-07-12T20:37:27.801Z,67.90
2018-07-12T20:39:56.402Z,67.60
2018-07-12T20:42:24.938Z,67.20
2018-07-12T20:44:53.528Z,67.20
2018-07-12T20:47:22.111Z,67.10
2018-07-12T20:49:50.647Z,67.00
2018-07-12T20:52:19.246Z,67.20
2018-07-12T20:54:47.875Z,67.60
2018-07-12T20:57:17.374Z,67.70
2018-07-12T20:59:45.872Z,68.00
2018-07-12T21:02:14.414Z,68.00
2018-07-12T21:04:42.912Z,68.40
2018-07-12T21:07:11.549Z,68.90
2018-07-12T21:09:40.295Z,69.10
2018-07-12T21:12:08.831Z,69.80
2018-07-12T21:14:37.389Z,69.70
2018-07-12T21:17:05.968Z,70.20
2018-07-12T21:19:34.537Z,70.00
2018-07-12T21:22:03.131Z,69.80
2018-07-12T21:24:31.650Z,70.60
2018-07-12T21:27:00.321Z,70.80
2018-07-12T21:29:30.019Z,70.80
2018-07-12T21:31:58.658Z,70.80
2018-07-12T21:34:27.165Z,70.90
2018-07-12T21:36:55.700Z,71.60
2018-07-12T21:39:24.372Z,71.90
2018-07-12T21:41:52.878Z,71.40
2018-07-12T21:44:21.514Z,71.70
2018-07-12T21:46:50.057Z,72.30
2018-07-12T21:49:24.156Z,72.00
2018-07-12T21:51:52.787Z,72.70
2018-07-12T21:54:21.887Z,72.60
2018-07-12T21:56:50.438Z,72.70
2018-07-12T21:59:18.946Z,72.30
2018-07-12T22:01:47.486Z,72.60
2018-07-12T22:04:16.047Z,73.20
2018-07-12T22:08:40.831Z,73.70
2018-07-12T22:11:09.370Z,73.80
2018-07-12T22:13:39.092Z,73.80
2018-07-12T22:16:07.728Z,74.20
2018-07-12T22:18:38.325Z,74.20
2018-07-12T22:21:06.897Z,74.80
2018-07-12T22:23:35.502Z,75.10
2018-07-12T22:26:04.100Z,74.90
2018-07-12T22:28:32.682Z,75.50
2018-07-12T22:31:01.279Z,75.60
2018-07-12T22:33:29.837Z,75.70
2018-07-12T22:35:58.399Z,75.70
2018-07-12T22:41:20.818Z,76.50
2018-07-12T22:43:49.306Z,76.80
2018-07-12T22:46:18.446Z,76.70
2018-07-12T22:48:46.987Z,76.50
2018-07-12T22:51:15.539Z,76.70
2018-07-12T22:53:44.133Z,77.20
2018-07-12T22:56:12.687Z,77.10
2018-07-12T22:58:41.252Z,77.20
2018-07-12T23:01:09.822Z,76.90
2018-07-12T23:03:38.846Z,77.00
2018-07-12T23:06:07.428Z,77.00
2018-07-12T23:08:37.188Z,77.50
2018-07-12T23:11:05.857Z,78.10
2018-07-12T23:13:34.348Z,78.40
2018-07-12T23:16:02.884Z,78.50
2018-07-12T23:18:31.429Z,78.70
2018-07-12T23:20:59.988Z,78.60
2018-07-12T23:23:28.552Z,78.60
2018-07-12T23:25:57.109Z,78.80
2018-07-12T23:28:25.858Z,79.20
2018-07-12T23:30:54.389Z,79.00
2018-07-12T23:33:22.891Z,79.20
2018-07-12T23:35:51.421Z,79.40
2018-07-12T23:38:20.213Z,79.60
2018-07-12T23:40:48.755Z,80.00
2018-07-12T23:43:17.334Z,80.30
2018-07-12T23:45:45.900Z,80.40
2018-07-12T23:48:14.526Z,80.20
2018-07-12T23:50:43.021Z,80.80
2018-07-12T23:53:11.588Z,81.20
2018-07-12T23:55:40.110Z,80.90
2018-07-12T23:58:08.697Z,81.10
